Time;durP1;ratioP1;P1;durP2;ratioP2;P2;SDS_P1;SDS_P2;PMS_P1;PMS_P2;Temp;Humidity;BMP_temperature;BMP_pressure;BME280_temperature;BME280_humidity;BME280_pressure;Samples;Min_cycle;Max_cycle;Signal;HPM_P1;HPM_P2
2022/06/09 00:00:23;;;;;;;4.82;3.75;;;;;;;18.11;72.35;100702.97;5005744;28;20072;-52
2022/06/09 00:02:53;;;;;;;5.88;3.85;;;;;;;18.16;72.88;100694.75;5003256;28;20391;-51
2022/06/09 00:05:20;;;;;;;4.85;3.42;;;;;;;18.18;72.89;100691.72;4999132;28;20133;-53
2022/06/09 00:07:47;;;;;;;6.40;4.10;;;;;;;18.22;73.19;100701.69;5003841;28;20033;-53
2022/06/09 00:10:17;;;;;;;4.47;3.72;;;;;;;18.22;74.21;100696.25;5000507;28;20376;-49
2022/06/09 00:12:43;;;;;;;5.63;3.80;;;;;;;18.24;74.12;100709.50;5000966;28;20014;-54
2022/06/09 00:15:13;;;;;;;3.85;3.45;;;;;;;18.21;75.12;100723.66;4996832;28;20148;-51
2022/06/09 00:17:39;;;;;;;4.90;3.38;;;;;;;18.19;75.47;100728.59;4998631;28;20034;-54
2022/06/09 00:20:06;;;;;;;5.18;3.17;;;;;;;18.20;75.38;100733.72;4997784;28;20026;-50
2022/06/09 00:22:32;;;;;;;6.53;3.15;;;;;;;18.23;75.15;100737.72;5002394;28;20014;-52
2022/06/09 00:24:57;;;;;;;3.33;3.00;;;;;;;18.25;74.88;100735.53;5003119;28;20096;-50
2022/06/09 00:27:23;;;;;;;3.38;3.08;;;;;;;18.27;74.59;100736.03;5003289;28;20033;-51
2022/06/09 00:29:49;;;;;;;4.82;3.17;;;;;;;18.29;74.42;100739.25;4997730;28;20034;-52
2022/06/09 00:32:15;;;;;;;4.75;3.28;;;;;;;18.23;74.46;100738.53;5001064;28;20109;-53
2022/06/09 00:34:40;;;;;;;3.88;2.97;;;;;;;18.27;74.03;100728.69;5000017;28;20025;-50
2022/06/09 00:37:06;;;;;;;3.33;2.95;;;;;;;18.30;73.88;100722.66;4997082;28;20412;-50
2022/06/09 00:39:31;;;;;;;4.38;2.95;;;;;;;18.30;73.89;100724.56;5001934;28;20492;-49
2022/06/09 00:41:57;;;;;;;3.42;3.13;;;;;;;18.33;73.82;100716.66;4998376;28;20025;-53
2022/06/09 00:44:28;;;;;;;4.22;3.20;;;;;;;18.40;73.40;100714.34;5000682;28;20029;-50
2022/06/09 00:47:24;;;;;;;5.30;2.92;;;;;;;18.43;73.43;100711.03;5001257;28;20033;-54
2022/06/09 00:50:15;;;;;;;3.72;3.42;;;;;;;18.46;73.56;100708.81;4999400;28;20038;-51
2022/06/09 00:52:47;;;;;;;4.82;2.95;;;;;;;18.49;73.52;100697.34;4999784;28;20501;-54
2022/06/09 00:55:18;;;;;;;6.60;3.95;;;;;;;18.45;74.60;100701.78;4993026;28;20053;-50
2022/06/09 00:57:49;;;;;;;6.22;4.00;;;;;;;18.37;74.86;100711.44;4999606;28;20022;-52
2022/06/09 01:00:21;;;;;;;4.20;3.33;;;;;;;18.29;74.86;100714.81;4999007;28;20026;-51
2022/06/09 01:02:48;;;;;;;4.13;3.25;;;;;;;18.28;74.67;100703.19;4999377;28;20030;-50
2022/06/09 01:05:16;;;;;;;3.53;3.22;;;;;;;18.25;74.75;100708.41;4998766;28;20049;-50
2022/06/09 01:07:46;;;;;;;4.57;3.35;;;;;;;18.25;75.01;100708.41;4998791;28;20300;-54
2022/06/09 01:10:12;;;;;;;4.47;2.97;;;;;;;18.24;74.58;100699.47;5000499;28;20261;-51
2022/06/09 01:12:42;;;;;;;7.70;3.00;;;;;;;18.24;74.62;100696.75;4998341;28;20476;-50
2022/06/09 01:15:12;;;;;;;4.28;3.42;;;;;;;18.31;74.04;100699.88;4999590;28;20048;-50
2022/06/09 01:18:07;;;;;;;3.83;3.53;;;;;;;18.32;74.23;100704.22;4999887;28;20480;-52
2022/06/09 01:21:05;;;;;;;3.80;3.50;;;;;;;18.27;74.11;100704.28;5000074;28;20026;-50
2022/06/09 01:23:58;;;;;;;8.48;3.42;;;;;;;18.13;74.96;100733.28;4997039;28;20112;-52
2022/06/09 01:27:14;;;;;;;3.95;3.55;;;;;;;17.98;75.98;100720.81;4999001;28;20097;-51
2022/06/09 01:30:06;;;;;;;6.88;3.10;;;;;;;18.04;75.17;100707.97;4957701;28;20061;-51
2022/06/09 01:32:39;;;;;;;4.82;3.97;;;;;;;18.13;75.98;100698.03;4959009;28;20172;-54
2022/06/09 01:35:12;;;;;;;3.83;3.30;;;;;;;18.08;77.41;100684.59;4984360;28;20100;-51
2022/06/09 01:37:51;;;;;;;4.40;2.85;;;;;;;18.09;77.06;100667.22;4995774;28;20559;-52
2022/06/09 01:40:18;;;;;;;3.97;2.72;;;;;;;18.12;76.59;100689.09;4995239;28;20479;-53
2022/06/09 01:42:54;;;;;;;3.85;3.55;;;;;;;18.05;77.17;100675.16;4997341;28;20030;-51
2022/06/09 01:45:22;;;;;;;4.55;3.03;;;;;;;18.15;76.43;100671.44;4997977;28;20037;-51
2022/06/09 01:47:59;;;;;;;3.42;3.13;;;;;;;18.17;77.72;100666.53;4996261;28;20053;-51
2022/06/09 01:50:39;;;;;;;4.03;3.40;;;;;;;18.15;78.32;100676.06;4996896;28;20034;-53
2022/06/09 01:53:19;;;;;;;4.07;3.67;;;;;;;18.07;78.98;100674.84;4995333;28;20034;-52
2022/06/09 01:55:51;;;;;;;3.85;3.30;;;;;;;18.05;78.41;100660.78;4995756;28;20026;-53
2022/06/09 01:58:21;;;;;;;4.80;4.30;;;;;;;17.96;79.67;100679.66;4996703;28;20407;-52
2022/06/09 02:00:48;;;;;;;4.25;3.85;;;;;;;17.87;79.54;100691.47;4994738;28;20026;-52
2022/06/09 02:03:20;;;;;;;4.38;3.25;;;;;;;17.83;78.73;100691.28;4995314;28;20031;-53
2022/06/09 02:05:51;;;;;;;6.50;3.97;;;;;;;17.86;78.28;100684.44;4997465;28;20034;-52
2022/06/09 02:08:19;;;;;;;6.28;4.15;;;;;;;17.89;77.85;100683.84;4993886;28;20037;-53
2022/06/09 02:10:51;;;;;;;6.38;4.22;;;;;;;17.87;77.67;100678.72;4995401;28;20030;-53
2022/06/09 02:13:34;;;;;;;4.43;4.03;;;;;;;17.87;77.52;100680.63;4998909;28;20057;-51
2022/06/09 02:16:03;;;;;;;4.47;4.07;;;;;;;17.85;77.34;100678.22;4998310;28;20495;-52
2022/06/09 02:18:32;;;;;;;5.85;4.50;;;;;;;17.87;77.36;100677.94;4998021;28;20065;-53
2022/06/09 02:21:06;;;;;;;7.70;4.65;;;;;;;17.85;78.12;100672.81;5000573;28;20407;-52
2022/06/09 02:23:33;;;;;;;5.88;4.60;;;;;;;17.87;77.48;100675.22;4999453;28;20022;-53
2022/06/09 02:25:58;;;;;;;5.80;5.10;;;;;;;17.90;77.26;100671.91;5001206;28;20022;-53
2022/06/09 02:28:24;;;;;;;9.13;5.05;;;;;;;17.91;77.42;100670.81;5001448;28;20384;-54
2022/06/09 02:30:50;;;;;;;4.80;4.32;;;;;;;17.95;77.27;100671.81;4999890;28;20037;-52
2022/06/09 02:33:16;;;;;;;5.07;4.60;;;;;;;17.95;77.31;100674.50;5003302;28;20068;-50
2022/06/09 02:35:42;;;;;;;5.10;4.40;;;;;;;17.96;77.78;100682.38;4999377;28;20400;-54
2022/06/09 02:38:08;;;;;;;6.97;4.75;;;;;;;17.95;77.37;100674.50;4998685;28;20026;-54
2022/06/09 02:40:34;;;;;;;4.75;4.35;;;;;;;17.96;76.89;100685.09;5000452;28;20022;-51
2022/06/09 02:43:00;;;;;;;6.60;4.72;;;;;;;17.92;77.16;100686.75;4996732;28;20395;-51
2022/06/09 02:45:27;;;;;;;5.70;4.60;;;;;;;17.95;76.74;100686.16;4996415;28;20484;-50
2022/06/09 02:47:53;;;;;;;4.95;4.45;;;;;;;17.91;77.13;100692.47;4993089;28;20399;-53
2022/06/09 02:50:19;;;;;;;5.45;4.57;;;;;;;17.83;77.76;100698.59;5003121;28;20022;-50
2022/06/09 02:52:45;;;;;;;4.78;4.38;;;;;;;17.79;77.59;100707.34;4995267;28;20037;-54
2022/06/09 02:55:12;;;;;;;5.22;4.50;;;;;;;17.72;77.96;100701.47;4997003;28;20034;-53
2022/06/09 02:57:38;;;;;;;5.53;4.70;;;;;;;17.67;78.10;100716.97;4998791;28;20045;-52
2022/06/09 03:00:06;;;;;;;4.68;4.25;;;;;;;17.62;78.82;100728.72;5004968;28;20025;-54
2022/06/09 03:02:33;;;;;;;5.13;4.30;;;;;;;17.63;78.91;100735.75;5003258;28;20033;-53
2022/06/09 03:04:59;;;;;;;5.28;4.82;;;;;;;17.66;78.89;100739.75;5002079;28;20083;-52
2022/06/09 03:07:25;;;;;;;5.45;4.20;;;;;;;17.64;78.80;100742.78;5001266;28;20475;-50
2022/06/09 03:09:51;;;;;;;5.72;4.63;;;;;;;17.60;79.69;100736.34;5000407;28;20026;-52
2022/06/09 03:12:17;;;;;;;5.05;4.60;;;;;;;17.57;80.44;100741.50;5002710;28;20034;-52
2022/06/09 03:14:43;;;;;;;5.05;4.22;;;;;;;17.61;80.03;100747.97;4999958;28;20037;-54
2022/06/09 03:17:09;;;;;;;5.97;4.57;;;;;;;17.58;80.34;100749.34;4997065;28;20022;-51
2022/06/09 03:19:36;;;;;;;5.25;4.75;;;;;;;17.56;80.40;100748.03;5000131;28;20034;-51
2022/06/09 03:22:01;;;;;;;5.22;4.72;;;;;;;17.58;80.23;100748.53;4999227;28;20249;-50
2022/06/09 03:24:27;;;;;;;6.18;4.60;;;;;;;17.62;80.02;100746.88;5000252;28;20029;-50
2022/06/09 03:26:52;;;;;;;7.03;4.85;;;;;;;17.67;79.46;100744.88;4998853;28;20025;-51
2022/06/09 03:29:19;;;;;;;5.40;4.90;;;;;;;17.69;79.56;100753.56;5000150;28;20033;-54
2022/06/09 03:31:46;;;;;;;4.82;4.43;;;;;;;17.71;79.63;100753.25;4996622;28;20460;-54
2022/06/09 03:34:12;;;;;;;6.60;4.68;;;;;;;17.73;79.76;100756.47;4997993;28;20037;-53
2022/06/09 03:36:38;;;;;;;4.45;4.05;;;;;;;17.75;79.58;100743.44;4999179;28;20430;-53
2022/06/09 03:39:04;;;;;;;6.28;4.57;;;;;;;17.72;79.52;100747.53;4998530;28;20034;-51
2022/06/09 03:41:29;;;;;;;5.47;4.72;;;;;;;17.76;79.21;100751.25;5000809;28;20172;-52
2022/06/09 03:43:55;;;;;;;5.20;4.70;;;;;;;17.80;79.21;100751.50;5001095;28;20462;-51
2022/06/09 03:46:20;;;;;;;5.97;4.95;;;;;;;17.83;79.29;100755.50;5005449;28;20624;-52
2022/06/09 03:48:46;;;;;;;5.88;5.30;;;;;;;17.79;79.51;100747.97;4998454;28;20022;-54
2022/06/09 03:51:12;;;;;;;5.07;4.60;;;;;;;17.83;79.41;100744.66;5003758;28;20033;-50
2022/06/09 03:53:39;;;;;;;5.97;4.53;;;;;;;17.87;79.30;100748.41;4999814;28;20028;-53
2022/06/09 03:56:11;;;;;;;5.28;4.70;;;;;;;17.88;79.34;100753.50;4999244;28;20039;-51
2022/06/09 03:58:37;;;;;;;5.25;4.55;;;;;;;17.91;79.21;100757.53;4999848;28;20030;-50
2022/06/09 04:01:02;;;;;;;5.95;4.55;;;;;;;17.93;79.04;100750.72;4997730;28;20054;-50
2022/06/09 04:03:29;;;;;;;5.88;4.65;;;;;;;17.95;79.58;100745.78;4993960;28;20112;-50
2022/06/09 04:05:56;;;;;;;7.95;5.28;;;;;;;17.97;79.73;100746.34;4996605;28;20029;-52
2022/06/09 04:08:22;;;;;;;6.18;4.57;;;;;;;18.00;79.83;100747.63;4996583;28;20030;-53
2022/06/09 04:10:48;;;;;;;5.82;5.03;;;;;;;18.01;80.36;100755.47;5000942;28;20021;-52
2022/06/09 04:13:15;;;;;;;5.82;5.13;;;;;;;18.02;80.20;100764.41;4998912;28;20493;-51
2022/06/09 04:15:43;;;;;;;5.75;5.10;;;;;;;18.01;80.11;100765.50;5004194;28;20372;-51
2022/06/09 04:18:10;;;;;;;5.18;4.38;;;;;;;18.00;80.09;100772.84;5000805;28;20505;-51
2022/06/09 04:20:36;;;;;;;5.57;5.10;;;;;;;17.99;81.04;100773.13;4999383;28;20014;-51
2022/06/09 04:23:02;;;;;;;6.05;4.90;;;;;;;17.97;81.81;100778.84;4999274;28;20045;-52
2022/06/09 04:25:28;;;;;;;7.88;5.07;;;;;;;17.94;81.70;100771.28;4994706;28;20212;-50
2022/06/09 04:27:54;;;;;;;5.38;4.88;;;;;;;17.96;81.70;100777.25;5000579;28;20424;-53
2022/06/09 04:30:20;;;;;;;4.88;4.47;;;;;;;17.99;81.27;100770.44;4998172;28;20357;-50
2022/06/09 04:32:46;;;;;;;5.63;5.13;;;;;;;18.00;81.02;100780.16;5001590;28;20121;-53
2022/06/09 04:35:12;;;;;;;6.20;5.60;;;;;;;17.97;81.52;100778.84;4997248;28;20021;-53
2022/06/09 04:38:14;;;;;;;5.63;5.13;;;;;;;17.96;81.66;100787.28;4999944;28;20076;-50
2022/06/09 04:40:37;;;;;;;5.55;4.78;;;;;;;18.00;81.04;100785.59;4997262;28;20056;-53
2022/06/09 04:43:05;;;;;;;7.40;5.63;;;;;;;18.00;81.01;100783.69;4999418;28;20399;-52
2022/06/09 04:45:30;;;;;;;9.93;5.30;;;;;;;18.02;80.90;100786.91;4999053;28;20403;-54
2022/06/09 04:47:56;;;;;;;8.45;5.78;;;;;;;18.04;80.86;100792.03;4999890;28;20029;-53
2022/06/09 04:50:21;;;;;;;5.82;5.20;;;;;;;18.09;80.44;100792.72;5000336;28;20071;-50
2022/06/09 04:52:48;;;;;;;5.28;4.82;;;;;;;18.12;80.14;100802.19;4997342;28;20033;-51
2022/06/09 04:55:14;;;;;;;5.43;4.93;;;;;;;18.09;80.98;100795.44;5000222;28;20116;-54
2022/06/09 04:57:40;;;;;;;5.55;5.05;;;;;;;18.04;81.87;100805.56;5000215;28;20022;-53
2022/06/09 05:00:08;;;;;;;5.70;4.55;;;;;;;18.05;82.03;100812.59;4997555;28;20036;-53
2022/06/09 05:02:33;;;;;;;8.77;5.18;;;;;;;18.14;82.09;100808.13;4998253;28;20097;-52
2022/06/09 05:04:59;;;;;;;6.03;5.03;;;;;;;18.22;81.33;100812.88;4995907;28;20117;-53
2022/06/09 05:07:25;;;;;;;5.60;5.10;;;;;;;18.25;81.00;100814.16;5000561;28;20037;-51
2022/06/09 05:09:50;;;;;;;7.63;5.28;;;;;;;18.29;80.45;100815.19;4993953;28;20034;-51
2022/06/09 05:12:16;;;;;;;5.68;5.18;;;;;;;18.37;80.53;100809.88;5000846;28;20030;-52
2022/06/09 05:14:41;;;;;;;6.40;5.80;;;;;;;18.45;81.12;100813.00;5000569;28;20613;-53
2022/06/09 05:17:07;;;;;;;7.18;5.40;;;;;;;18.53;80.67;100821.28;5001649;28;20154;-52
2022/06/09 05:19:33;;;;;;;6.03;5.43;;;;;;;18.59;80.79;100825.50;4997063;28;20392;-52
2022/06/09 05:21:58;;;;;;;6.05;5.45;;;;;;;18.55;80.88;100827.22;4997731;28;20028;-53
2022/06/09 05:24:24;;;;;;;7.70;5.43;;;;;;;18.64;80.44;100830.06;4998041;28;20435;-52
2022/06/09 05:26:49;;;;;;;6.85;5.25;;;;;;;18.66;80.57;100830.56;4993913;28;20136;-50
2022/06/09 05:29:16;;;;;;;10.15;5.32;;;;;;;18.64;80.32;100835.47;4994982;28;20028;-50
2022/06/09 05:31:43;;;;;;;7.35;5.45;;;;;;;18.75;80.34;100833.38;5000014;28;20120;-51
2022/06/09 05:34:10;;;;;;;6.97;5.28;;;;;;;18.85;80.28;100834.00;4997956;28;20048;-50
2022/06/09 05:36:36;;;;;;;7.03;5.65;;;;;;;18.87;79.95;100837.22;5000475;28;20376;-50
2022/06/09 05:47:14;;;;;;;6.43;5.00;;;;;;;18.93;79.63;100848.78;4995336;28;20088;-49
2022/06/09 05:49:40;;;;;;;5.20;4.68;;;;;;;19.04;78.82;100855.63;4996537;28;20121;-49
2022/06/09 05:52:05;;;;;;;6.20;5.13;;;;;;;19.09;78.55;100850.09;5002299;28;20116;-53
2022/06/09 05:54:31;;;;;;;7.20;5.40;;;;;;;19.17;78.04;100843.94;4995208;28;20065;-50
2022/06/09 05:56:57;;;;;;;5.50;4.53;;;;;;;19.26;77.86;100844.03;5007127;28;20034;-50
2022/06/09 05:59:22;;;;;;;5.18;4.55;;;;;;;19.38;77.23;100843.50;5008386;28;20045;-54
2022/06/09 06:01:48;;;;;;;7.68;5.18;;;;;;;19.46;76.76;100834.66;5003990;28;20483;-50
2022/06/09 06:04:15;;;;;;;6.60;4.63;;;;;;;19.58;76.25;100849.34;5002789;28;20034;-50
2022/06/09 06:06:41;;;;;;;4.43;4.03;;;;;;;19.69;75.56;100839.03;5002190;28;20038;-50
2022/06/09 06:09:13;;;;;;;5.20;4.70;;;;;;;19.79;74.95;100844.25;5007095;28;20490;-52
2022/06/09 06:11:39;;;;;;;5.25;4.30;;;;;;;19.87;74.29;100840.00;5003093;28;20486;-51
2022/06/09 06:14:08;;;;;;;5.40;4.93;;;;;;;19.96;74.30;100838.16;5006240;28;20430;-54
2022/06/09 06:16:34;;;;;;;5.55;5.10;;;;;;;20.04;73.80;100834.69;5000885;28;20438;-52
2022/06/09 06:18:59;;;;;;;4.32;4.03;;;;;;;20.11;73.25;100845.97;5004864;28;20029;-51
2022/06/09 06:21:25;;;;;;;4.68;4.28;;;;;;;20.19;72.17;100842.47;5004569;28;20072;-53
2022/06/09 06:23:51;;;;;;;5.38;4.50;;;;;;;20.30;72.24;100845.75;5004663;28;20600;-51
2022/06/09 06:26:17;;;;;;;4.95;4.13;;;;;;;20.34;71.11;100848.66;5006127;28;20030;-52
2022/06/09 06:28:43;;;;;;;6.28;4.00;;;;;;;20.48;71.36;100852.94;5008709;28;20034;-50
2022/06/09 06:31:08;;;;;;;4.28;3.80;;;;;;;20.51;70.31;100854.22;5007097;28;20021;-53
2022/06/09 06:33:34;;;;;;;3.70;3.40;;;;;;;20.51;70.06;100857.75;5005865;28;20037;-53
2022/06/09 06:35:59;;;;;;;4.40;3.90;;;;;;;20.35;69.27;100852.97;5006505;28;20103;-51
2022/06/09 06:38:25;;;;;;;4.18;3.80;;;;;;;20.33;69.28;100857.94;5003353;28;20065;-53
2022/06/09 06:40:50;;;;;;;4.38;3.97;;;;;;;20.34;68.97;100859.53;5005455;28;20224;-51
2022/06/09 06:43:16;;;;;;;4.57;4.18;;;;;;;20.43;69.17;100868.56;5006079;28;20025;-54
2022/06/09 06:45:42;;;;;;;4.88;4.47;;;;;;;20.48;69.25;100860.31;5004001;28;20132;-52
2022/06/09 06:48:08;;;;;;;4.50;4.10;;;;;;;20.55;68.98;100862.56;5005908;28;20472;-50
2022/06/09 06:50:33;;;;;;;5.97;4.25;;;;;;;20.59;68.99;100867.06;5004298;28;20408;-52
2022/06/09 06:52:59;;;;;;;4.63;4.22;;;;;;;20.64;68.94;100864.22;5007608;28;20034;-49
2022/06/09 06:55:25;;;;;;;5.20;4.70;;;;;;;20.70;69.80;100865.69;5005710;28;20084;-53
2022/06/09 06:57:51;;;;;;;4.78;4.28;;;;;;;20.77;69.34;100874.22;5005185;28;20471;-50
2022/06/09 07:00:22;;;;;;;4.38;3.97;;;;;;;20.81;68.79;100874.38;5008085;28;20038;-51
2022/06/09 07:02:49;;;;;;;5.55;4.68;;;;;;;20.83;69.42;100885.78;5003401;28;20467;-51
2022/06/09 07:05:16;;;;;;;4.63;4.10;;;;;;;20.84;69.37;100890.13;5007308;28;20026;-51
2022/06/09 07:07:41;;;;;;;5.80;4.63;;;;;;;20.80;69.69;100898.09;5004593;28;20262;-50
2022/06/09 07:10:09;;;;;;;5.55;4.60;;;;;;;20.84;69.62;100894.75;5002926;28;20440;-54
2022/06/09 07:12:36;;;;;;;5.03;4.53;;;;;;;20.82;69.17;100889.59;5002756;28;20105;-51
2022/06/09 07:15:02;;;;;;;5.82;4.95;;;;;;;20.94;68.79;100903.44;5000811;28;20462;-54
2022/06/09 07:17:28;;;;;;;6.35;5.30;;;;;;;20.98;68.45;100900.91;5002932;28;20052;-54
2022/06/09 07:19:53;;;;;;;7.03;5.65;;;;;;;21.10;68.42;100914.72;5004519;28;20113;-54
2022/06/09 07:22:19;;;;;;;6.78;5.45;;;;;;;21.14;67.70;100912.97;4998315;28;20281;-52
2022/06/09 07:24:46;;;;;;;6.07;5.53;;;;;;;21.29;68.31;100912.59;5004168;28;20030;-52
2022/06/09 07:27:12;;;;;;;8.23;6.53;;;;;;;21.44;68.27;100911.34;4999040;28;20049;-54
2022/06/09 07:29:38;;;;;;;7.40;5.80;;;;;;;21.49;67.92;100916.66;5008474;28;20510;-53
2022/06/09 07:32:05;;;;;;;6.13;5.53;;;;;;;21.20;68.02;100928.09;4994705;28;20037;-53
2022/06/09 07:34:31;;;;;;;6.05;5.47;;;;;;;21.26;68.09;100918.69;5006163;28;20539;-51
2022/06/09 07:36:57;;;;;;;6.82;6.13;;;;;;;21.47;68.41;100916.16;5001094;28;20036;-51
2022/06/09 07:39:24;;;;;;;8.60;6.70;;;;;;;21.61;67.61;100919.56;5006771;28;20030;-52
2022/06/09 07:41:50;;;;;;;5.90;5.30;;;;;;;21.73;67.46;100927.16;4998994;28;20026;-51
2022/06/09 07:44:16;;;;;;;6.20;5.60;;;;;;;21.79;67.01;100925.88;5003419;28;20019;-52
2022/06/09 07:46:42;;;;;;;7.22;6.20;;;;;;;21.83;66.37;100926.81;4998758;28;20030;-51
2022/06/09 07:49:08;;;;;;;5.47;5.00;;;;;;;21.89;65.67;100930.19;5007171;28;20057;-52
2022/06/09 07:51:34;;;;;;;6.63;5.22;;;;;;;22.03;65.94;100926.19;5004965;28;20403;-53
2022/06/09 07:54:01;;;;;;;5.38;4.40;;;;;;;22.20;65.01;100930.06;5004236;28;20482;-51
2022/06/09 07:56:27;;;;;;;4.90;4.45;;;;;;;22.27;64.34;100933.16;5004968;28;20036;-51
2022/06/09 07:58:52;;;;;;;4.43;4.03;;;;;;;22.41;63.93;100936.47;5000229;28;20030;-53
2022/06/09 08:01:20;;;;;;;3.92;3.63;;;;;;;22.64;63.46;100939.03;5001717;28;20076;-50
2022/06/09 08:03:46;;;;;;;4.43;3.70;;;;;;;22.68;61.83;100949.00;5000662;28;20038;-51
2022/06/09 08:06:12;;;;;;;3.72;2.72;;;;;;;22.79;60.71;100963.09;5001832;28;20538;-50
2022/06/09 08:08:38;;;;;;;4.75;3.13;;;;;;;22.95;59.80;100953.28;4997117;28;20030;-50
2022/06/09 08:11:05;;;;;;;3.42;2.72;;;;;;;23.02;59.08;100953.59;5003340;28;20032;-50
2022/06/09 08:13:32;;;;;;;3.25;2.63;;;;;;;23.05;58.49;100952.13;4998466;28;20606;-51
2022/06/09 08:15:58;;;;;;;4.00;2.22;;;;;;;22.92;56.76;100962.13;5002600;28;20037;-51
2022/06/09 08:18:23;;;;;;;2.75;2.55;;;;;;;22.90;57.19;100958.91;4999115;28;20076;-50
2022/06/09 08:20:49;;;;;;;4.22;2.58;;;;;;;22.96;56.77;100967.72;5005521;28;20022;-51
2022/06/09 08:23:18;;;;;;;2.58;2.38;;;;;;;23.03;56.38;100962.59;4997304;28;20369;-50
2022/06/09 08:25:46;;;;;;;2.63;2.42;;;;;;;22.97;55.37;100964.69;5001142;28;20038;-53
2022/06/09 08:28:12;;;;;;;3.08;2.60;;;;;;;22.80;55.28;100970.16;4994297;28;20022;-49
2022/06/09 08:30:39;;;;;;;3.70;2.47;;;;;;;22.82;55.97;100965.22;5005897;28;20476;-50
2022/06/09 08:33:05;;;;;;;3.45;2.63;;;;;;;23.03;56.81;100960.66;4997499;28;20033;-50
2022/06/09 08:35:32;;;;;;;3.03;2.78;;;;;;;23.20;55.90;100963.34;4996989;28;20034;-50
2022/06/09 08:37:58;;;;;;;3.50;2.80;;;;;;;23.43;55.99;100963.88;4999920;28;20072;-50
2022/06/09 08:40:55;;;;;;;4.82;2.67;;;;;;;23.48;54.17;100960.13;5000289;28;20062;-50
2022/06/09 08:43:47;;;;;;;5.32;2.55;;;;;;;23.55;53.63;100960.44;5000289;28;20033;-50
2022/06/09 08:46:24;;;;;;;3.47;1.88;;;;;;;23.52;53.27;100977.50;4995947;28;20506;-53
2022/06/09 08:48:52;;;;;;;2.58;1.95;;;;;;;23.53;53.09;100987.31;5000560;28;20030;-50
2022/06/09 08:51:42;;;;;;;2.65;1.70;;;;;;;23.48;52.08;100979.28;4993351;28;20391;-53
2022/06/09 08:54:21;;;;;;;2.25;1.77;;;;;;;23.47;52.58;100977.66;5001898;28;20053;-50
2022/06/09 08:56:49;;;;;;;4.50;1.77;;;;;;;23.52;52.86;100985.72;4995651;28;20174;-50
2022/06/09 08:59:19;;;;;;;1.90;1.70;;;;;;;23.52;52.62;100986.50;5002122;28;20026;-50
2022/06/09 09:01:51;;;;;;;2.53;2.22;;;;;;;23.42;52.68;100981.41;5003031;28;20113;-50
2022/06/09 09:04:21;;;;;;;3.65;2.40;;;;;;;23.30;53.13;100988.69;5002831;28;20031;-51
2022/06/09 09:06:56;;;;;;;2.45;2.25;;;;;;;23.45;54.24;100990.88;5000421;28;20026;-50
2022/06/09 09:09:32;;;;;;;;;;;;;;;23.49;52.85;100995.34;4992716;28;20061;-49
2022/06/09 09:12:12;;;;;;;2.63;2.35;;;;;;;23.75;54.51;100995.25;5001106;28;20334;-53
2022/06/09 09:14:54;;;;;;;3.67;2.30;;;;;;;24.08;54.05;100997.31;4993058;28;20028;-52
2022/06/09 09:17:31;;;;;;;3.30;2.38;;;;;;;24.22;53.65;100997.84;4999160;28;20034;-50
2022/06/09 09:20:05;;;;;;;2.92;2.15;;;;;;;24.33;52.58;101001.81;4995651;28;20400;-51
2022/06/09 09:22:54;;;;;;;3.10;2.45;;;;;;;24.20;51.41;100999.31;4994012;28;20026;-51
2022/06/09 09:25:41;;;;;;;2.15;1.95;;;;;;;24.19;52.09;100998.50;4998653;28;20022;-52
2022/06/09 09:28:27;;;;;;;3.28;2.25;;;;;;;24.34;52.73;101005.34;4994558;28;20699;-50
2022/06/09 09:31:39;;;;;;;6.90;2.70;;;;;;;24.56;53.49;100996.78;5000586;28;20416;-52
2022/06/09 09:34:05;;;;;;;2.33;2.20;;;;;;;24.82;53.11;100999.28;4996247;28;20495;-53
2022/06/09 09:36:37;;;;;;;5.75;2.28;;;;;;;24.91;52.68;101002.72;4997372;28;20045;-52
2022/06/09 09:39:14;;;;;;;2.53;2.30;;;;;;;24.70;50.71;100996.50;4998494;28;20022;-53
2022/06/09 09:41:40;;;;;;;2.10;1.90;;;;;;;24.59;51.86;100998.84;4995143;28;20014;-52
2022/06/09 09:44:26;;;;;;;2.55;1.95;;;;;;;24.44;50.50;100998.69;5000104;28;20022;-51
2022/06/09 09:47:01;;;;;;;3.33;2.00;;;;;;;24.33;51.19;100999.06;4997433;28;20025;-53
2022/06/09 09:49:32;;;;;;;2.38;2.17;;;;;;;24.32;50.66;101002.16;4996673;28;20073;-53
2022/06/09 09:51:59;;;;;;;3.15;1.80;;;;;;;24.26;50.76;101009.75;4999490;28;20046;-54
2022/06/09 09:54:35;;;;;;;2.85;1.50;;;;;;;24.23;51.25;101004.91;4999453;28;20018;-53
2022/06/09 09:57:03;;;;;;;1.77;1.50;;;;;;;24.34;50.82;101005.34;4998147;28;20120;-53
2022/06/09 09:59:28;;;;;;;2.67;1.75;;;;;;;24.45;50.77;101005.75;4997680;28;20018;-51
2022/06/09 10:10:28;;;;;;;2.05;1.23;;;;;;;24.60;48.04;101016.91;4998689;28;20100;-53
2022/06/09 10:12:57;;;;;;;1.85;1.48;;;;;;;24.70;47.48;101012.94;4998336;28;20508;-53
2022/06/09 10:15:26;;;;;;;2.80;1.75;;;;;;;24.66;47.70;101026.50;4998531;28;20557;-52
2022/06/09 10:18:15;;;;;;;2.00;1.20;;;;;;;24.70;48.47;101030.16;4999503;28;20534;-53
2022/06/09 10:20:43;;;;;;;1.60;1.50;;;;;;;24.68;48.05;101031.66;5001071;28;20505;-55
2022/06/09 10:23:17;;;;;;;1.17;1.08;;;;;;;24.63;47.98;101040.09;5000708;28;20061;-50
2022/06/09 10:25:58;;;;;;;2.33;1.30;;;;;;;24.14;48.18;101039.78;5000345;28;20090;-53
2022/06/09 10:28:41;;;;;;;1.42;1.27;;;;;;;23.90;48.97;101045.88;4996939;28;20045;-52
2022/06/09 10:31:26;;;;;;;1.73;1.45;;;;;;;23.91;49.80;101042.00;4992221;28;20033;-52
2022/06/09 10:34:16;;;;;;;1.80;1.20;;;;;;;23.79;48.77;101050.91;5000295;28;20193;-53
2022/06/09 10:36:47;;;;;;;1.38;0.93;;;;;;;23.85;49.26;101057.00;4998122;28;20447;-52
2022/06/09 10:39:39;;;;;;;1.50;0.90;;;;;;;23.75;48.57;101044.50;5001493;28;20557;-52
2022/06/09 10:42:27;;;;;;;2.35;1.10;;;;;;;23.75;48.75;101052.72;5000633;28;20649;-53
2022/06/09 10:45:10;;;;;;;2.80;0.90;;;;;;;23.79;48.62;101059.13;5004654;28;20029;-50
2022/06/09 10:56:58;;;;;;;1.40;0.98;;;;;;;23.73;47.61;101071.41;5003265;28;20056;-54
2022/06/09 10:59:36;;;;;;;1.83;0.85;;;;;;;23.63;48.02;101069.00;5002416;28;20434;-51
2022/06/09 11:02:02;;;;;;;2.78;1.27;;;;;;;23.79;48.63;101059.13;5000945;28;20029;-53
2022/06/09 11:04:34;;;;;;;1.08;0.70;;;;;;;23.79;48.59;101070.06;5000476;28;20029;-51
2022/06/09 11:07:19;;;;;;;2.17;0.93;;;;;;;23.68;49.61;101077.03;4997649;28;20018;-52
2022/06/09 11:09:49;;;;;;;0.77;0.77;;;;;;;23.68;49.90;101077.03;4998500;28;20526;-54
2022/06/09 11:12:30;;;;;;;3.53;0.90;;;;;;;23.78;49.91;101082.16;5004949;28;20044;-54
2022/06/09 11:15:14;;;;;;;0.93;0.85;;;;;;;23.83;49.94;101077.63;5004801;28;20484;-50
2022/06/09 11:17:55;;;;;;;3.70;0.70;;;;;;;23.84;49.97;101085.50;5001658;28;20034;-52
2022/06/09 11:20:45;;;;;;;2.28;0.70;;;;;;;23.95;49.57;101091.41;4999465;28;20073;-53
2022/06/09 11:23:29;;;;;;;2.40;0.88;;;;;;;24.02;49.40;101086.22;5001131;28;20076;-50
2022/06/09 11:26:11;;;;;;;0.90;0.90;;;;;;;24.13;49.52;101086.66;5003500;28;20529;-52
2022/06/09 11:29:08;;;;;;;3.63;0.80;;;;;;;24.18;49.38;101089.97;5020063;22;20061;-46
2022/06/09 11:32:06;;;;;;;3.22;1.08;;;;;;;24.36;49.48;101096.19;5020619;28;20029;-47
2022/06/09 11:35:03;;;;;;;1.23;0.90;;;;;;;24.40;49.27;101084.22;5017960;28;20036;-46
2022/06/09 11:37:47;;;;;;;2.08;1.20;;;;;;;24.47;48.32;101094.66;5015060;28;20045;-47
2022/06/09 11:40:34;;;;;;;2.00;1.70;;;;;;;24.19;48.09;101094.31;5002240;28;20123;-48
2022/06/09 11:43:39;;;;;;;4.32;2.60;;;;;;;24.09;48.33;101095.53;4997693;28;20038;-47
2022/06/09 11:46:29;;;;;;;6.20;1.70;;;;;;;24.09;47.70;101102.94;4998204;28;20033;-47
2022/06/09 11:49:02;;;;;;;8.20;3.25;;;;;;;24.09;47.57;101094.72;4997055;28;20124;-47
2022/06/09 11:51:29;;;;;;;5.18;1.50;;;;;;;24.08;48.52;101102.13;5000296;28;20049;-47
2022/06/09 11:54:01;;;;;;;3.20;1.90;;;;;;;24.05;48.80;101101.97;4998545;28;20037;-47
2022/06/09 11:56:40;;;;;;;3.80;1.83;;;;;;;24.04;49.44;101095.69;4995132;28;20729;-47
2022/06/09 11:59:11;;;;;;;3.63;1.80;;;;;;;24.02;48.88;101108.09;4999200;28;20261;-46
2022/06/09 12:01:40;;;;;;;2.22;1.17;;;;;;;24.04;49.17;101106.63;4999187;28;20613;-49
2022/06/09 12:04:23;;;;;;;2.00;1.42;;;;;;;24.07;49.66;101114.22;4995404;28;20036;-47
2022/06/09 12:07:17;;;;;;;1.73;1.10;;;;;;;24.10;49.39;101107.28;5000457;28;20036;-48